createdAt,value
2023-03-28T00:01:08.150Z,2.10
2023-03-28T00:03:36.550Z,2.20
2023-03-28T00:06:09.825Z,2.20
2023-03-28T00:08:39.444Z,2.10
2023-03-28T00:11:12.755Z,2.10
2023-03-28T00:13:40.124Z,2.20
2023-03-28T00:16:12.703Z,2.10
2023-03-28T00:18:41.478Z,2.10
2023-03-28T00:21:19.743Z,2.00
2023-03-28T00:23:47.107Z,1.80
2023-03-28T00:26:14.743Z,1.70
2023-03-28T00:28:42.296Z,1.60
2023-03-28T00:31:09.504Z,1.50
2023-03-28T00:33:36.765Z,1.40
2023-03-28T00:36:04.977Z,1.30
2023-03-28T00:38:32.329Z,1.20
2023-03-28T00:41:00.201Z,1.00
2023-03-28T00:43:44.010Z,0.70
2023-03-28T00:46:21.111Z,0.60
2023-03-28T00:48:54.835Z,0.50
2023-03-28T00:51:29.414Z,0.50
2023-03-28T00:54:00.130Z,0.40
2023-03-28T00:56:31.487Z,0.40
2023-03-28T00:58:59.943Z,0.50
2023-03-28T01:01:27.420Z,0.60
2023-03-28T01:04:02.315Z,0.70
2023-03-28T01:06:33.017Z,0.70
2023-03-28T01:09:04.608Z,0.80
2023-03-28T01:11:34.504Z,0.80
2023-03-28T01:14:04.412Z,1.00
2023-03-28T01:16:31.815Z,1.00
2023-03-28T01:19:03.868Z,1.00
2023-03-28T01:22:08.325Z,1.10
2023-03-28T01:24:35.427Z,1.30
2023-03-28T01:27:27.658Z,1.40
2023-03-28T01:30:16.373Z,1.50
2023-03-28T01:32:55.498Z,1.70
2023-03-28T01:35:41.471Z,1.70
2023-03-28T01:38:30.341Z,1.60
2023-03-28T01:41:08.275Z,1.60
2023-03-28T01:44:06.197Z,1.50
2023-03-28T01:46:39.228Z,1.40
2023-03-28T01:49:34.727Z,1.30
2023-03-28T01:52:24.434Z,1.10
2023-03-28T01:55:17.200Z,1.30
2023-03-28T01:58:06.732Z,1.20
2023-03-28T02:01:02.526Z,1.30
2023-03-28T02:03:33.794Z,1.30
2023-03-28T02:06:04.421Z,1.20
2023-03-28T02:08:36.693Z,1.00
2023-03-28T02:11:04.201Z,1.20
2023-03-28T02:13:50.690Z,1.20
2023-03-28T02:16:23.146Z,1.20
2023-03-28T02:18:56.604Z,1.30
2023-03-28T02:22:06.004Z,1.30
2023-03-28T02:24:33.234Z,1.10
2023-03-28T02:27:00.660Z,0.80
2023-03-28T02:29:28.525Z,0.60
2023-03-28T02:31:56.223Z,0.40
2023-03-28T02:34:23.425Z,0.30
2023-03-28T02:37:29.264Z,0.30
2023-03-28T02:39:59.433Z,0.30
2023-03-28T02:42:51.358Z,0.20
2023-03-28T02:45:24.402Z,0.20
2023-03-28T02:48:30.519Z,0.20
2023-03-28T02:51:23.812Z,0.20
2023-03-28T02:53:59.945Z,0.10
2023-03-28T02:56:39.793Z,0.10
2023-03-28T02:59:12.443Z,0.10
2023-03-28T03:01:41.702Z,0.20
2023-03-28T03:04:09.134Z,0.20
2023-03-28T03:06:36.733Z,0.00
2023-03-28T03:09:04.934Z,0.10
2023-03-28T03:11:32.566Z,0.20
2023-03-28T03:14:00.463Z,0.20
2023-03-28T03:16:29.354Z,0.20
2023-03-28T03:18:59.548Z,0.20
2023-03-28T03:21:27.318Z,0.10
2023-03-28T03:23:54.469Z,0.00
2023-03-28T03:26:22.929Z,0.00
2023-03-28T03:28:50.508Z,-0.20
2023-03-28T03:31:19.592Z,-0.50
2023-03-28T03:33:47.081Z,-0.50
2023-03-28T03:36:17.174Z,-0.40
2023-03-28T03:38:44.656Z,-0.40
2023-03-28T03:41:11.766Z,-0.50
2023-03-28T03:43:38.963Z,-0.40
2023-03-28T03:46:06.463Z,-0.30
2023-03-28T03:48:33.731Z,-0.30
2023-03-28T03:51:00.970Z,-0.30
2023-03-28T03:53:28.141Z,-0.30
2023-03-28T03:56:00.542Z,-0.30
2023-03-28T03:58:27.960Z,-0.20
2023-03-28T04:00:55.903Z,-0.20
2023-03-28T04:03:25.068Z,-0.20
2023-03-28T04:05:55.096Z,-0.20
2023-03-28T04:08:22.612Z,-0.10
2023-03-28T04:10:50.408Z,-0.20
2023-03-28T04:13:17.531Z,-0.30
2023-03-28T04:15:46.894Z,-0.30
2023-03-28T04:18:15.505Z,-0.40
2023-03-28T04:20:43.541Z,-0.40
2023-03-28T04:23:10.794Z,-0.30
2023-03-28T04:25:41.642Z,-0.30
2023-03-28T04:28:09.848Z,-0.30
2023-03-28T04:30:38.309Z,-0.40
2023-03-28T04:33:05.479Z,-0.30
2023-03-28T04:35:35.552Z,-0.30
2023-03-28T04:38:02.780Z,-0.10
2023-03-28T04:40:29.962Z,0.00
2023-03-28T04:42:57.143Z,0.00
2023-03-28T04:45:26.427Z,0.70
2023-03-28T04:47:53.928Z,0.50
2023-03-28T04:50:21.241Z,0.20
2023-03-28T04:52:48.360Z,0.20
2023-03-28T04:55:16.273Z,0.00
2023-03-28T04:57:43.463Z,0.00
2023-03-28T05:00:13.169Z,0.10
2023-03-28T05:02:40.422Z,0.10
2023-03-28T05:05:07.947Z,0.10
2023-03-28T05:07:36.795Z,0.00
2023-03-28T05:10:04.896Z,-0.10
2023-03-28T05:12:32.042Z,-0.10
2023-03-28T05:14:59.162Z,-0.20
2023-03-28T05:17:26.361Z,-0.20
2023-03-28T05:19:53.556Z,-0.20
2023-03-28T05:22:20.818Z,-0.30
2023-03-28T05:24:48.107Z,-0.40
2023-03-28T05:27:15.318Z,-0.30
2023-03-28T05:29:42.434Z,-0.30
2023-03-28T05:32:09.902Z,-0.30
2023-03-28T05:34:37.161Z,-0.30
2023-03-28T05:37:04.314Z,-0.40
2023-03-28T05:39:31.851Z,-0.30
2023-03-28T05:41:59.032Z,-0.20
2023-03-28T05:44:26.233Z,-0.20
2023-03-28T05:46:53.511Z,-0.20
2023-03-28T05:49:20.671Z,-0.10
2023-03-28T05:51:47.992Z,-0.10
2023-03-28T05:54:15.444Z,0.00
2023-03-28T05:56:42.585Z,0.10
2023-03-28T05:59:09.751Z,0.20
2023-03-28T06:01:37.159Z,0.40
2023-03-28T06:04:04.290Z,0.60
2023-03-28T06:06:33.231Z,0.90
2023-03-28T06:09:00.919Z,1.20
2023-03-28T06:11:28.358Z,1.50
2023-03-28T06:13:55.693Z,1.90
2023-03-28T06:16:31.294Z,1.90
2023-03-28T06:19:10.441Z,2.00
2023-03-28T06:21:41.974Z,2.10
2023-03-28T06:24:11.064Z,2.20
2023-03-28T06:26:38.314Z,2.30
2023-03-28T06:29:06.564Z,2.40
2023-03-28T06:31:34.253Z,2.40
2023-03-28T06:34:01.434Z,2.50
2023-03-28T06:36:28.579Z,2.60
2023-03-28T06:38:55.831Z,2.60
2023-03-28T06:41:22.989Z,2.70
2023-03-28T06:43:50.219Z,2.70
2023-03-28T06:46:17.356Z,2.80
2023-03-28T06:48:44.554Z,2.90
2023-03-28T06:51:12.943Z,2.90
2023-03-28T06:53:40.231Z,2.90
2023-03-28T06:56:08.007Z,3.10
2023-03-28T06:58:35.165Z,3.10
2023-03-28T07:01:03.654Z,3.30
2023-03-28T07:03:31.228Z,3.40
2023-03-28T07:05:59.043Z,3.30
2023-03-28T07:08:26.303Z,3.20
2023-03-28T07:10:53.539Z,3.20
2023-03-28T07:13:20.738Z,3.10
2023-03-28T07:15:47.948Z,2.90
2023-03-28T07:18:15.075Z,3.00
2023-03-28T07:20:44.173Z,2.90
2023-03-28T07:23:12.854Z,3.10
2023-03-28T07:25:40.183Z,3.20
2023-03-28T07:28:07.460Z,3.40
2023-03-28T07:30:34.791Z,3.20
2023-03-28T07:33:13.025Z,3.30
2023-03-28T07:35:42.120Z,3.30
2023-03-28T07:38:10.075Z,3.40
2023-03-28T07:40:37.312Z,3.70
2023-03-28T07:43:04.680Z,3.90
2023-03-28T07:45:32.108Z,4.00
2023-03-28T07:47:59.282Z,4.00
2023-03-28T07:50:27.175Z,4.10
2023-03-28T07:52:57.692Z,4.30
2023-03-28T07:55:28.401Z,4.10
2023-03-28T07:57:55.745Z,4.20
2023-03-28T08:00:24.234Z,4.10
2023-03-28T08:02:51.955Z,4.20
2023-03-28T08:05:19.302Z,4.30
2023-03-28T08:07:47.313Z,4.70
2023-03-28T08:10:14.605Z,4.70
2023-03-28T08:12:41.761Z,4.80
2023-03-28T08:15:09.339Z,4.70
2023-03-28T08:17:36.584Z,4.70
2023-03-28T08:20:08.285Z,4.60
2023-03-28T08:22:36.525Z,4.40
2023-03-28T08:25:04.631Z,4.40
2023-03-28T08:27:31.782Z,4.50
2023-03-28T08:29:58.947Z,4.70
2023-03-28T08:32:26.957Z,5.00
2023-03-28T08:34:54.411Z,5.40
2023-03-28T08:37:25.152Z,5.60
2023-03-28T08:39:52.288Z,5.00
2023-03-28T08:42:45.423Z,5.30
2023-03-28T08:45:18.558Z,5.00
2023-03-28T08:47:51.520Z,4.70
2023-03-28T08:50:48.038Z,4.60
2023-03-28T08:53:26.530Z,4.70
2023-03-28T08:55:56.468Z,4.90
2023-03-28T08:58:27.230Z,5.20
2023-03-28T09:00:54.439Z,5.40
2023-03-28T09:03:24.175Z,5.60
2023-03-28T09:06:30.926Z,5.40
2023-03-28T09:09:18.765Z,5.40
2023-03-28T09:11:57.039Z,5.00
2023-03-28T09:14:51.438Z,4.90
2023-03-28T09:17:47.309Z,5.30
2023-03-28T09:20:35.351Z,5.80
2023-03-28T09:23:17.889Z,5.60
2023-03-28T09:26:01.780Z,5.70
2023-03-28T09:28:59.618Z,5.20
2023-03-28T09:31:43.489Z,5.50
2023-03-28T09:34:23.782Z,5.40
2023-03-28T09:36:56.391Z,5.30
2023-03-28T09:39:40.347Z,5.50
2023-03-28T09:42:27.360Z,5.50
2023-03-28T09:45:07.791Z,5.50
2023-03-28T09:47:35.577Z,5.40
2023-03-28T09:50:13.306Z,5.00
2023-03-28T09:52:41.551Z,5.10
2023-03-28T09:55:35.672Z,5.70
2023-03-28T09:58:14.879Z,5.60
2023-03-28T10:00:46.669Z,5.20
2023-03-28T10:03:23.201Z,5.10
2023-03-28T10:05:53.848Z,5.10
2023-03-28T10:08:22.758Z,4.90
2023-03-28T10:11:17.162Z,4.70
2023-03-28T10:13:48.480Z,4.60
2023-03-28T10:16:43.860Z,4.70
2023-03-28T10:19:14.269Z,4.80
2023-03-28T10:21:41.452Z,4.70
2023-03-28T10:24:13.207Z,4.80
2023-03-28T10:26:40.725Z,4.90
2023-03-28T10:29:11.178Z,5.20
2023-03-28T10:31:39.847Z,5.70
2023-03-28T10:34:33.725Z,5.90
2023-03-28T10:37:01.230Z,5.50
2023-03-28T10:39:33.252Z,5.50
2023-03-28T10:42:02.032Z,5.50
2023-03-28T10:44:36.543Z,5.70
2023-03-28T10:47:08.078Z,5.80
2023-03-28T10:49:45.879Z,5.90
2023-03-28T10:52:36.942Z,6.30
2023-03-28T10:55:04.118Z,6.10
2023-03-28T10:57:43.785Z,6.10
2023-03-28T11:00:22.665Z,6.20
2023-03-28T11:03:37.714Z,5.30
2023-03-28T11:06:21.977Z,5.80
2023-03-28T11:09:16.959Z,5.90
2023-03-28T11:11:54.306Z,6.40
2023-03-28T11:14:21.582Z,6.40
2023-03-28T11:17:01.776Z,6.70
2023-03-28T11:20:10.654Z,6.70
2023-03-28T11:23:05.574Z,6.90
2023-03-28T11:26:10.554Z,6.00
2023-03-28T11:29:08.330Z,5.90
2023-03-28T11:31:59.274Z,6.00
2023-03-28T11:34:32.168Z,5.60
2023-03-28T11:37:17.605Z,5.70
2023-03-28T11:40:15.109Z,6.10
2023-03-28T11:42:49.595Z,6.30
2023-03-28T11:45:51.047Z,6.70
2023-03-28T11:48:34.593Z,7.10
2023-03-28T11:51:10.172Z,6.50
2023-03-28T11:54:07.790Z,6.00
2023-03-28T11:56:40.965Z,5.70
2023-03-28T11:59:35.497Z,5.80
2023-03-28T12:02:11.963Z,6.30
2023-03-28T12:05:23.445Z,6.40
2023-03-28T12:08:10.149Z,6.40
2023-03-28T12:10:38.513Z,6.30
2023-03-28T12:13:46.019Z,6.30
2023-03-28T12:16:24.145Z,6.00
2023-03-28T12:19:00.987Z,6.00
2023-03-28T12:21:36.728Z,6.40
2023-03-28T12:24:17.410Z,6.60
2023-03-28T12:27:03.100Z,6.70
2023-03-28T12:29:53.457Z,6.50
2023-03-28T12:32:38.900Z,6.10
2023-03-28T12:35:21.469Z,6.00
2023-03-28T12:38:24.305Z,6.00
2023-03-28T12:41:15.569Z,6.00
2023-03-28T12:43:47.858Z,6.10
2023-03-28T12:46:18.426Z,6.40
2023-03-28T12:49:01.015Z,6.30
2023-03-28T12:51:35.198Z,6.40
2023-03-28T12:54:07.481Z,6.60
2023-03-28T12:56:35.550Z,6.50
2023-03-28T12:59:35.057Z,6.80
2023-03-28T13:02:37.749Z,6.70
2023-03-28T13:05:20.981Z,6.70
2023-03-28T13:07:55.189Z,6.50
2023-03-28T13:10:41.648Z,6.70
2023-03-28T13:13:22.853Z,6.80
2023-03-28T13:16:02.971Z,7.00
2023-03-28T13:18:35.075Z,6.90
2023-03-28T13:21:05.316Z,7.10
2023-03-28T13:23:36.375Z,7.00
2023-03-28T13:26:06.527Z,6.70
2023-03-28T13:28:48.046Z,6.90
2023-03-28T13:31:18.296Z,6.90
2023-03-28T13:34:01.806Z,6.90
2023-03-28T13:36:32.438Z,6.70
2023-03-28T13:39:18.598Z,6.50
2023-03-28T13:41:45.780Z,6.40
2023-03-28T13:44:16.803Z,6.40
2023-03-28T13:46:47.651Z,7.10
2023-03-28T13:49:19.399Z,7.10
2023-03-28T13:52:04.819Z,7.00
2023-03-28T13:54:32.772Z,7.10
2023-03-28T13:57:15.951Z,6.70
2023-03-28T14:00:05.957Z,6.70
2023-03-28T14:02:44.960Z,6.70
2023-03-28T14:05:15.750Z,6.40
2023-03-28T14:07:42.989Z,6.50
2023-03-28T14:10:31.782Z,6.90
2023-03-28T14:13:12.930Z,6.70
2023-03-28T14:15:41.903Z,6.40
2023-03-28T14:18:31.982Z,6.10
2023-03-28T14:21:00.719Z,6.00
2023-03-28T14:23:34.448Z,5.90
2023-03-28T14:26:04.778Z,6.10
2023-03-28T14:28:32.629Z,6.00
2023-03-28T14:31:00.831Z,6.10
2023-03-28T14:33:34.269Z,6.00
2023-03-28T14:36:05.736Z,6.30
2023-03-28T14:38:36.188Z,6.30
2023-03-28T14:41:06.869Z,6.70
2023-03-28T14:43:34.405Z,6.90
2023-03-28T14:46:05.771Z,6.60
2023-03-28T14:48:34.178Z,6.70
2023-03-28T14:51:03.958Z,6.80
2023-03-28T14:53:37.174Z,6.60
2023-03-28T14:56:12.677Z,6.50
2023-03-28T14:58:43.846Z,6.40
2023-03-28T15:01:16.137Z,6.60
2023-03-28T15:03:47.166Z,6.60
2023-03-28T15:06:16.285Z,6.40
2023-03-28T15:08:44.799Z,6.50
2023-03-28T15:11:25.663Z,6.30
2023-03-28T15:14:04.635Z,6.20
2023-03-28T15:16:36.920Z,6.40
2023-03-28T15:19:09.389Z,6.60
2023-03-28T15:21:39.107Z,6.40
2023-03-28T15:24:10.404Z,6.50
2023-03-28T15:26:42.168Z,6.60
2023-03-28T15:29:12.751Z,6.50
2023-03-28T15:31:41.157Z,6.50
2023-03-28T15:34:22.468Z,6.50
2023-03-28T15:37:00.995Z,6.40
2023-03-28T15:39:32.096Z,6.50
2023-03-28T15:42:01.491Z,6.60
2023-03-28T15:44:37.977Z,6.60
2023-03-28T15:47:14.943Z,6.50
2023-03-28T15:49:42.251Z,6.50
2023-03-28T15:52:19.820Z,6.50
2023-03-28T15:54:52.605Z,6.60
2023-03-28T15:57:27.334Z,6.60
2023-03-28T15:59:56.253Z,6.40
2023-03-28T16:02:23.420Z,6.20
2023-03-28T16:05:09.352Z,6.40
2023-03-28T16:07:51.296Z,6.30
2023-03-28T16:10:23.334Z,6.30
2023-03-28T16:12:51.503Z,6.20
2023-03-28T16:15:19.887Z,6.00
2023-03-28T16:17:48.825Z,6.00
2023-03-28T16:20:19.662Z,6.10
2023-03-28T16:22:46.963Z,6.40
2023-03-28T16:25:14.730Z,7.00
2023-03-28T16:27:42.829Z,7.70
2023-03-28T16:30:21.334Z,7.90
2023-03-28T16:32:51.282Z,7.50
2023-03-28T16:35:18.681Z,7.80
2023-03-28T16:37:45.982Z,7.90
2023-03-28T16:40:13.268Z,7.90
2023-03-28T16:42:40.435Z,7.40
2023-03-28T16:45:11.403Z,6.30
2023-03-28T16:47:39.321Z,5.70
2023-03-28T16:50:08.836Z,5.50
2023-03-28T16:52:38.985Z,5.20
2023-03-28T16:55:17.223Z,5.10
2023-03-28T16:57:44.493Z,4.90
2023-03-28T17:00:17.829Z,4.90
2023-03-28T17:02:47.125Z,4.80
2023-03-28T17:05:15.600Z,4.60
2023-03-28T17:07:42.779Z,4.70
2023-03-28T17:10:11.047Z,4.50
2023-03-28T17:12:38.197Z,4.40
2023-03-28T17:15:06.789Z,4.50
2023-03-28T17:17:33.984Z,4.60
2023-03-28T17:20:01.390Z,4.40
2023-03-28T17:22:28.587Z,4.40
2023-03-28T17:24:57.330Z,4.30
2023-03-28T17:27:24.531Z,4.20
2023-03-28T17:29:51.857Z,4.10
2023-03-28T17:32:19.337Z,4.10
2023-03-28T17:34:46.754Z,4.10
2023-03-28T17:37:14.056Z,4.30
2023-03-28T17:39:41.368Z,4.20
2023-03-28T17:42:09.694Z,4.00
2023-03-28T17:44:36.861Z,3.90
2023-03-28T17:47:04.295Z,3.70
2023-03-28T17:49:31.774Z,3.60
2023-03-28T17:52:00.082Z,3.50
2023-03-28T17:54:27.393Z,3.30
2023-03-28T17:56:54.639Z,3.30
2023-03-28T17:59:22.328Z,3.20
2023-03-28T18:01:50.057Z,3.10
2023-03-28T18:04:19.698Z,3.00
2023-03-28T18:06:46.868Z,3.00
2023-03-28T18:09:15.545Z,2.80
2023-03-28T18:11:42.868Z,2.80
2023-03-28T18:14:11.231Z,2.70
2023-03-28T18:16:40.077Z,2.70
2023-03-28T18:19:09.122Z,2.50
2023-03-28T18:21:37.956Z,2.30
2023-03-28T18:24:05.496Z,2.30
2023-03-28T18:26:33.113Z,2.20
2023-03-28T18:29:00.351Z,2.20
2023-03-28T18:31:28.409Z,2.10
2023-03-28T18:33:57.381Z,2.10
2023-03-28T18:36:25.851Z,2.00
2023-03-28T18:38:56.076Z,1.90
2023-03-28T18:41:23.973Z,2.10
2023-03-28T18:43:51.411Z,2.10
2023-03-28T18:46:18.661Z,2.10
2023-03-28T18:48:45.850Z,1.80
2023-03-28T18:51:13.884Z,1.70
2023-03-28T18:53:41.151Z,1.60
2023-03-28T18:56:10.488Z,1.70
2023-03-28T18:58:38.441Z,1.70
2023-03-28T19:01:08.901Z,1.60
2023-03-28T19:03:40.074Z,1.60
2023-03-28T19:06:12.449Z,1.50
2023-03-28T19:08:40.452Z,1.60
2023-03-28T19:11:19.698Z,1.50
2023-03-28T19:13:46.961Z,1.50
2023-03-28T19:16:16.019Z,1.50
2023-03-28T19:18:45.312Z,1.60
2023-03-28T19:21:12.848Z,1.60
2023-03-28T19:23:40.814Z,1.40
2023-03-28T19:26:09.442Z,1.40
2023-03-28T19:28:37.192Z,1.50
2023-03-28T19:31:06.642Z,1.60
2023-03-28T19:33:34.205Z,1.60
2023-03-28T19:36:01.784Z,1.90
2023-03-28T19:38:30.872Z,2.10
2023-03-28T19:40:59.343Z,2.10
2023-03-28T19:43:27.145Z,2.40
2023-03-28T19:46:00.711Z,2.60
2023-03-28T19:48:28.123Z,2.50
2023-03-28T19:50:55.261Z,2.40
2023-03-28T19:53:22.393Z,2.30
2023-03-28T19:55:54.336Z,2.50
2023-03-28T19:58:22.043Z,2.60
2023-03-28T20:00:49.878Z,2.50
2023-03-28T20:03:17.464Z,2.40
2023-03-28T20:05:46.586Z,2.30
2023-03-28T20:08:14.635Z,2.20
2023-03-28T20:10:43.719Z,2.20
2023-03-28T20:13:11.350Z,2.10
2023-03-28T20:15:43.076Z,2.00
2023-03-28T20:18:14.535Z,2.20
2023-03-28T20:20:42.834Z,2.10
2023-03-28T20:23:11.786Z,1.80
2023-03-28T20:25:39.099Z,1.80
2023-03-28T20:28:09.937Z,1.50
2023-03-28T20:30:37.964Z,1.20
2023-03-28T20:33:05.260Z,1.10
2023-03-28T20:35:32.680Z,1.30
2023-03-28T20:38:00.144Z,1.60
2023-03-28T20:40:27.634Z,1.90
2023-03-28T20:42:55.142Z,2.30
2023-03-28T20:45:22.339Z,2.70
2023-03-28T20:47:58.834Z,2.90
2023-03-28T20:50:34.049Z,3.10
2023-03-28T20:53:08.051Z,3.00
2023-03-28T20:55:35.326Z,3.00
2023-03-28T20:58:02.561Z,3.10
2023-03-28T21:00:33.780Z,3.00
2023-03-28T21:03:03.408Z,2.90
2023-03-28T21:05:31.211Z,2.40
2023-03-28T21:07:59.213Z,1.90
2023-03-28T21:10:26.809Z,1.30
2023-03-28T21:12:54.002Z,1.00
2023-03-28T21:15:21.299Z,0.90
2023-03-28T21:17:49.578Z,0.60
2023-03-28T21:20:18.538Z,0.50
2023-03-28T21:22:45.772Z,0.40
2023-03-28T21:25:14.162Z,0.20
2023-03-28T21:27:41.492Z,0.10
2023-03-28T21:30:11.784Z,0.00
2023-03-28T21:32:39.058Z,0.00
2023-03-28T21:35:06.692Z,0.10
2023-03-28T21:37:33.855Z,0.20
2023-03-28T21:40:01.206Z,0.20
2023-03-28T21:42:28.532Z,0.20
2023-03-28T21:44:55.887Z,0.20
2023-03-28T21:47:23.095Z,0.20
2023-03-28T21:49:50.182Z,0.30
2023-03-28T21:52:17.504Z,0.50
2023-03-28T21:54:44.638Z,0.50
2023-03-28T21:57:11.789Z,0.50
2023-03-28T21:59:41.246Z,0.50
2023-03-28T22:02:08.517Z,0.40
2023-03-28T22:04:36.867Z,0.40
2023-03-28T22:07:04.049Z,0.30
2023-03-28T22:09:31.305Z,0.10
2023-03-28T22:11:58.489Z,0.10
2023-03-28T22:14:25.612Z,0.00
2023-03-28T22:16:52.731Z,-0.20
2023-03-28T22:19:20.216Z,-0.20
2023-03-28T22:21:50.389Z,-0.30
2023-03-28T22:24:17.930Z,-0.50
2023-03-28T22:26:45.125Z,-0.60
2023-03-28T22:29:12.538Z,-0.70
2023-03-28T22:31:39.741Z,-0.70
2023-03-28T22:34:07.216Z,-0.70
2023-03-28T22:36:34.546Z,-0.80
2023-03-28T22:39:01.769Z,-0.80
2023-03-28T22:41:31.743Z,-0.80
2023-03-28T22:43:59.375Z,-0.80
2023-03-28T22:46:26.617Z,-0.80
2023-03-28T22:48:58.546Z,-0.80
2023-03-28T22:51:28.177Z,-0.70
2023-03-28T22:54:00.361Z,-0.60
2023-03-28T22:56:27.745Z,-0.60
2023-03-28T22:58:55.914Z,-0.60
2023-03-28T23:01:26.101Z,-0.50
2023-03-28T23:03:53.367Z,-0.60
2023-03-28T23:06:20.524Z,-0.60
2023-03-28T23:08:48.234Z,-0.60
2023-03-28T23:11:15.555Z,-0.60
2023-03-28T23:13:42.716Z,-0.70
2023-03-28T23:16:10.017Z,-0.90
2023-03-28T23:18:38.310Z,-0.90
2023-03-28T23:21:06.387Z,-0.80
2023-03-28T23:23:33.506Z,-0.80
2023-03-28T23:26:00.864Z,-0.80
2023-03-28T23:28:29.085Z,-0.70
2023-03-28T23:30:56.487Z,-0.70
2023-03-28T23:33:24.015Z,-0.70
2023-03-28T23:35:51.212Z,-0.60
2023-03-28T23:38:18.478Z,-0.60
2023-03-28T23:40:46.286Z,-0.60
2023-03-28T23:43:13.647Z,-0.60
2023-03-28T23:45:41.106Z,-0.70
2023-03-28T23:48:09.238Z,-0.70
2023-03-28T23:50:36.487Z,-0.70
2023-03-28T23:53:04.619Z,-0.90
2023-03-28T23:55:32.205Z,-0.90
2023-03-28T23:58:01.993Z,-1.00
